createdAt,value
2022-08-07T00:02:36.921Z,21.31
2022-08-07T00:05:12.171Z,21.11
2022-08-07T00:08:44.255Z,21.11
2022-08-07T00:11:54.089Z,20.99
2022-08-07T00:15:12.251Z,20.95
2022-08-07T00:18:18.835Z,20.95
2022-08-07T00:21:55.538Z,21.00
2022-08-07T00:24:33.390Z,21.08
2022-08-07T00:27:56.651Z,21.10
2022-08-07T00:31:06.215Z,21.07
2022-08-07T00:34:08.539Z,20.94
2022-08-07T00:37:04.865Z,21.20
2022-08-07T00:40:00.936Z,21.20
2022-08-07T00:42:55.203Z,21.25
2022-08-07T00:45:49.977Z,21.21
2022-08-07T00:48:52.402Z,21.14
2022-08-07T00:51:57.403Z,21.00
2022-08-07T00:54:54.297Z,20.77
2022-08-07T00:57:56.066Z,20.71
2022-08-07T01:00:53.982Z,20.69
2022-08-07T01:03:56.552Z,20.50
2022-08-07T01:06:57.210Z,20.52
2022-08-07T01:10:05.737Z,20.34
2022-08-07T01:13:03.341Z,20.26
2022-08-07T01:16:05.916Z,20.15
2022-08-07T01:19:00.677Z,20.17
2022-08-07T01:22:03.294Z,20.15
2022-08-07T01:24:58.863Z,20.23
2022-08-07T01:27:53.650Z,20.18
2022-08-07T01:30:51.997Z,20.31
2022-08-07T01:33:53.773Z,20.35
2022-08-07T01:36:57.706Z,20.20
2022-08-07T01:39:53.526Z,20.31
2022-08-07T01:42:58.793Z,20.41
2022-08-07T01:45:54.467Z,20.57
2022-08-07T01:48:48.790Z,20.53
2022-08-07T01:52:02.015Z,20.65
2022-08-07T01:55:06.454Z,20.60
2022-08-07T01:58:27.230Z,20.67
2022-08-07T02:01:59.355Z,20.78
2022-08-07T02:04:38.686Z,20.75
2022-08-07T02:07:50.191Z,20.62
2022-08-07T02:11:31.050Z,20.60
2022-08-07T02:14:36.599Z,20.67
2022-08-07T02:17:36.852Z,20.73
2022-08-07T02:20:33.711Z,20.71
2022-08-07T02:23:31.280Z,20.75
2022-08-07T02:30:12.746Z,20.67
2022-08-07T02:33:10.714Z,20.54
2022-08-07T02:36:29.844Z,20.65
2022-08-07T02:39:43.567Z,20.62
2022-08-07T02:42:41.597Z,20.60
2022-08-07T02:46:01.649Z,20.63
2022-08-07T02:48:57.494Z,20.61
2022-08-07T02:51:53.013Z,20.56
2022-08-07T02:54:49.951Z,20.54
2022-08-07T02:57:49.302Z,20.49
2022-08-07T03:00:47.523Z,20.49
2022-08-07T03:03:50.866Z,20.56
2022-08-07T03:06:49.669Z,20.54
2022-08-07T03:13:49.322Z,20.58
2022-08-07T03:16:44.459Z,20.62
2022-08-07T03:19:39.577Z,20.73
2022-08-07T03:22:34.884Z,20.73
2022-08-07T03:25:40.440Z,20.87
2022-08-07T03:28:41.666Z,20.95
2022-08-07T03:31:43.288Z,21.03
2022-08-07T03:34:47.163Z,21.01
2022-08-07T03:37:59.775Z,21.11
2022-08-07T03:40:57.837Z,21.23
2022-08-07T03:44:16.231Z,21.30
2022-08-07T03:47:22.964Z,21.42
2022-08-07T03:50:19.622Z,21.47
2022-08-07T03:53:19.931Z,21.66
2022-08-07T03:56:37.896Z,21.72
2022-08-07T03:59:32.766Z,21.82
2022-08-07T04:02:32.566Z,21.98
2022-08-07T04:05:40.647Z,22.09
2022-08-07T04:08:47.211Z,22.02
2022-08-07T04:12:23.896Z,22.13
2022-08-07T04:15:00.299Z,22.31
2022-08-07T04:18:56.471Z,22.47
2022-08-07T04:21:16.446Z,22.48
2022-08-07T04:24:30.535Z,22.53
2022-08-07T04:27:27.573Z,22.65
2022-08-07T04:30:39.464Z,22.83
2022-08-07T04:33:39.467Z,22.85
2022-08-07T04:36:35.056Z,23.00
2022-08-07T04:39:35.815Z,22.93
2022-08-07T04:42:31.572Z,23.18
2022-08-07T04:45:57.956Z,23.33
2022-08-07T04:49:17.564Z,23.38
2022-08-07T04:52:51.201Z,23.40
2022-08-07T04:58:15.263Z,23.54
2022-08-07T05:00:10.907Z,23.68
2022-08-07T05:02:59.242Z,23.78
2022-08-07T05:06:20.456Z,23.69
2022-08-07T05:09:43.480Z,23.72
2022-08-07T05:12:52.800Z,23.91
2022-08-07T05:15:51.391Z,23.88
2022-08-07T05:18:53.209Z,24.01
2022-08-07T05:22:00.752Z,24.03
2022-08-07T05:28:16.785Z,24.19
2022-08-07T05:31:37.950Z,24.50
2022-08-07T05:34:32.893Z,24.62
2022-08-07T05:37:30.750Z,24.62
2022-08-07T05:40:35.348Z,24.83
2022-08-07T05:44:08.521Z,24.92
2022-08-07T05:47:18.238Z,24.86
2022-08-07T05:57:30.031Z,25.15
2022-08-07T06:00:39.604Z,25.17
2022-08-07T06:03:53.686Z,25.34
2022-08-07T06:10:44.144Z,25.37
2022-08-07T06:14:12.502Z,25.44
2022-08-07T06:16:57.283Z,25.62
2022-08-07T06:20:03.919Z,25.64
2022-08-07T06:23:02.134Z,25.60
2022-08-07T06:26:12.272Z,25.72
2022-08-07T06:32:46.784Z,25.92
2022-08-07T06:35:47.917Z,25.88
2022-08-07T06:40:13.188Z,25.74
2022-08-07T06:42:32.865Z,25.61
2022-08-07T06:45:45.717Z,25.61
2022-08-07T06:48:38.241Z,25.72
2022-08-07T07:12:36.970Z,26.06
2022-08-07T07:15:45.708Z,26.03
2022-08-07T07:19:11.293Z,26.23
2022-08-07T07:24:08.577Z,26.21
2022-08-07T07:26:37.949Z,26.52
2022-08-07T07:33:28.761Z,26.52
2022-08-07T07:36:32.693Z,26.52
2022-08-07T07:52:42.826Z,26.88
2022-08-07T07:55:45.343Z,27.05
2022-08-07T08:02:35.696Z,27.28
2022-08-07T08:05:53.583Z,27.27
2022-08-07T08:12:36.798Z,27.63
2022-08-07T08:16:12.700Z,27.71
2022-08-07T08:20:16.279Z,27.74
2022-08-07T08:26:06.663Z,28.38
2022-08-07T08:29:09.950Z,29.04
2022-08-07T08:32:18.397Z,29.74
2022-08-07T08:42:12.061Z,37.55
2022-08-07T08:55:54.630Z,45.83
2022-08-07T09:09:47.576Z,50.49
2022-08-07T09:13:10.418Z,49.73
2022-08-07T09:24:31.969Z,50.48
2022-08-07T09:26:47.750Z,49.81
2022-08-07T09:30:03.323Z,50.11
2022-08-07T09:33:56.705Z,50.95
2022-08-07T09:37:02.326Z,46.48
2022-08-07T09:40:14.956Z,46.90
2022-08-07T09:44:03.611Z,48.55
2022-08-07T09:47:59.644Z,47.27
2022-08-07T09:51:01.408Z,45.02
2022-08-07T09:54:02.406Z,45.49
2022-08-07T10:00:38.549Z,46.67
2022-08-07T10:04:06.115Z,46.33
2022-08-07T10:07:53.305Z,47.64
2022-08-07T10:14:22.975Z,45.60
2022-08-07T10:18:03.899Z,45.57
2022-08-07T10:21:50.502Z,46.71
2022-08-07T10:24:53.723Z,47.33
2022-08-07T10:31:38.787Z,46.10
2022-08-07T10:35:00.142Z,47.39
2022-08-07T10:38:36.136Z,48.01
2022-08-07T10:41:53.100Z,47.75
2022-08-07T10:48:37.039Z,49.04
2022-08-07T11:06:02.530Z,45.89
2022-08-07T11:09:11.078Z,45.83
2022-08-07T11:12:43.388Z,47.07
2022-08-07T11:15:40.732Z,45.70
2022-08-07T11:18:43.377Z,45.29
2022-08-07T11:21:54.888Z,46.66
2022-08-07T11:25:19.737Z,47.32
2022-08-07T11:28:27.374Z,47.64
2022-08-07T11:31:33.351Z,47.97
2022-08-07T11:34:52.686Z,46.33
2022-08-07T11:42:01.972Z,46.55
2022-08-07T11:45:20.529Z,47.26
2022-08-07T11:48:49.954Z,46.86
2022-08-07T11:52:29.269Z,45.58
2022-08-07T11:56:20.453Z,45.02
2022-08-07T12:00:12.128Z,44.05
2022-08-07T12:03:08.974Z,44.53
2022-08-07T12:13:36.683Z,44.44
2022-08-07T12:16:43.287Z,44.34
2022-08-07T12:19:56.413Z,43.76
2022-08-07T12:23:09.068Z,43.45
2022-08-07T12:26:23.528Z,43.77
2022-08-07T12:32:56.089Z,44.79
2022-08-07T12:35:57.918Z,43.78
2022-08-07T12:38:59.668Z,43.33
2022-08-07T12:41:55.144Z,43.10
2022-08-07T12:48:27.954Z,43.74
2022-08-07T12:51:33.383Z,43.36
2022-08-07T12:54:54.949Z,41.87
2022-08-07T12:58:01.463Z,40.89
2022-08-07T13:01:28.019Z,40.03
2022-08-07T13:12:03.323Z,38.77
2022-08-07T13:15:43.378Z,38.53
2022-08-07T13:19:02.621Z,37.99
2022-08-07T13:25:29.613Z,38.48
2022-08-07T13:28:32.610Z,37.93
2022-08-07T13:34:52.736Z,37.78
2022-08-07T13:38:07.896Z,37.44
2022-08-07T13:54:34.837Z,36.82
2022-08-07T13:57:38.159Z,36.71
2022-08-07T14:00:39.745Z,36.54
2022-08-07T14:04:08.179Z,35.97
2022-08-07T14:10:24.798Z,35.58
2022-08-07T14:13:33.526Z,35.59
2022-08-07T14:23:02.589Z,34.06
2022-08-07T14:30:07.638Z,33.17
2022-08-07T14:32:46.277Z,32.76
2022-08-07T14:35:47.337Z,32.39
2022-08-07T14:45:21.977Z,31.44
2022-08-07T14:52:04.530Z,30.77
2022-08-07T14:55:11.613Z,30.25
2022-08-07T14:58:24.040Z,29.99
2022-08-07T15:05:01.759Z,29.73
2022-08-07T15:07:58.225Z,29.55
2022-08-07T15:11:02.157Z,29.43
2022-08-07T15:20:54.905Z,29.15
2022-08-07T15:25:14.671Z,29.00
2022-08-07T15:27:31.474Z,28.95
2022-08-07T15:44:10.768Z,28.14
2022-08-07T16:06:58.561Z,27.02
2022-08-07T16:10:03.840Z,26.90
2022-08-07T16:13:58.440Z,26.66
2022-08-07T16:16:57.302Z,26.53
2022-08-07T16:20:38.913Z,26.58
2022-08-07T16:41:04.463Z,25.82
2022-08-07T16:44:47.547Z,25.91
2022-08-07T16:52:01.489Z,25.57
2022-08-07T16:55:08.549Z,25.60
2022-08-07T17:01:56.640Z,25.53
2022-08-07T17:09:09.165Z,25.22
2022-08-07T17:12:44.684Z,25.12
2022-08-07T17:15:59.583Z,25.27
2022-08-07T17:26:56.384Z,25.16
2022-08-07T17:30:26.645Z,25.03
2022-08-07T17:34:10.163Z,24.95
2022-08-07T17:37:09.671Z,25.00
2022-08-07T17:40:57.066Z,24.99
2022-08-07T17:44:06.479Z,24.86
2022-08-07T17:47:38.079Z,24.71
2022-08-07T18:01:21.081Z,24.79
2022-08-07T18:04:37.895Z,24.67
2022-08-07T18:21:54.867Z,24.69
2022-08-07T18:25:39.270Z,24.87
2022-08-07T18:42:13.276Z,24.59
2022-08-07T18:50:30.206Z,24.46
2022-08-07T18:56:09.466Z,24.24
2022-08-07T18:59:47.532Z,23.77
2022-08-07T19:06:41.074Z,23.07
2022-08-07T19:13:22.103Z,23.03
2022-08-07T19:20:01.553Z,22.33
2022-08-07T19:23:18.517Z,21.87
2022-08-07T19:26:24.643Z,21.79
2022-08-07T19:31:05.609Z,21.72
2022-08-07T19:50:58.050Z,21.76
2022-08-07T20:00:38.964Z,21.34
2022-08-07T20:04:06.749Z,21.12
2022-08-07T20:11:15.267Z,21.27
2022-08-07T20:14:53.875Z,21.07
2022-08-07T20:21:25.773Z,21.19
2022-08-07T20:41:15.020Z,20.92
2022-08-07T20:44:30.334Z,20.85
2022-08-07T20:54:33.675Z,20.65
2022-08-07T21:04:25.154Z,20.59
2022-08-07T21:07:41.911Z,20.34
2022-08-07T21:18:17.525Z,20.32
2022-08-07T21:31:17.623Z,20.28
2022-08-07T21:34:31.954Z,20.31
2022-08-07T21:41:11.348Z,20.18
2022-08-07T21:54:27.968Z,20.30
2022-08-07T21:57:45.005Z,20.30
2022-08-07T22:00:54.087Z,20.11
2022-08-07T22:03:57.525Z,20.28
2022-08-07T22:07:31.476Z,20.26
2022-08-07T22:28:31.291Z,20.04
2022-08-07T22:31:59.346Z,20.05
2022-08-07T22:38:47.861Z,19.98
2022-08-07T22:42:19.448Z,19.92
2022-08-07T22:46:40.701Z,19.96
2022-08-07T22:49:42.852Z,19.87
2022-08-07T22:53:07.420Z,19.80
2022-08-07T22:59:50.551Z,19.87
2022-08-07T23:13:29.000Z,19.85
2022-08-07T23:20:54.589Z,19.81
2022-08-07T23:38:14.518Z,19.71
2022-08-07T23:42:06.895Z,19.70
2022-08-07T23:57:00.351Z,19.35
